Cap Felix — ONFH — position and weather

sailwx.info

Track history (hours):
 
Tides and Currents Weather Stations Pressure Air Temp Water Temp Dewpoint Dewpoint Depression Visibility Wind Speed Wind Dir Waves Ship Positions

Cap Felix

Last reported at 2015-Jul-05 20:32 UTC. Time now 2015-Jul-05 23:15 UTC.
Position N 33°54' W 118°27'.

Length 275 m; draft 16.6 m.

Type: Tanker. MMSI: 205517000.

Date/timePositionNaut miles runAvg speedWind from/ knotsBaromVisibWave heightAir tempDewpointWater temp
2015-Jul-05 20:32N 33°54' W 118°27'0 0.0
2015-Jul-05 18:23N 33°54' W 118°27'1 0.9
2015-Jul-05 17:33N 33°54' W 118°28'2 1.6
2015-Jul-05 16:33N 33°54' W 118°29'0 0.0
2015-Jul-05 15:33N 33°54' W 118°30'0 0.1
2015-Jul-05 14:33N 33°54' W 118°29'0 0.1
2015-Jul-05 13:30N 33°54' W 118°29'0 0.1
2015-Jul-05 12:33N 33°54' W 118°29'0 0.1
2015-Jul-05 11:30N 33°54' W 118°29'14 4.7
2015-Jul-05 08:29N 33°40' W 118°25'9 6.8
2015-Jul-05 07:11N 33°38' W 118°15'5 7.5
2015-Jul-05 06:32N 33°35' W 118°10'7 6.7
2015-Jul-05 05:33N 33°29' W 118°07'6 6.4
2015-Jul-05 04:33N 33°23' W 118°05'6 6.5
2015-Jul-05 03:33N 33°17' W 118°02'6 6.2
2015-Jul-05 02:33N 33°11' W 118°00'6 6.2
2015-Jul-05 01:33N 33°05' W 117°58'6 6.1
2015-Jul-05 00:33N 32°59' W 117°56'6 6.2
2015-Jul-04 23:33N 32°53' W 117°54'7 6.7
2015-Jul-04 22:33N 32°47' W 117°52'7 7.1
2015-Jul-04 21:33N 32°40' W 117°49'8 8.1
2015-Jul-04 20:33N 32°32' W 117°47'1110.5
2015-Jul-04 19:33N 32°22' W 117°47'9 9.0
2015-Jul-04 18:33N 32°13' W 117°46'6 6.1
2015-Jul-04 17:33N 32°07' W 117°46'9 8.8
2015-Jul-04 16:33N 31°58' W 117°45'9 8.8
2015-Jul-04 15:33N 31°49' W 117°44'9 9.0
2015-Jul-04 14:33N 31°40' W 117°43'9 8.6
2015-Jul-04 13:33N 31°32' W 117°41'9 8.5
2015-Jul-04 12:33N 31°24' W 117°38'9 8.7
2015-Jul-04 11:33N 31°15' W 117°34'9 8.5
2015-Jul-04 10:33N 31°07' W 117°31'8 8.4
2015-Jul-04 09:33N 30°59' W 117°28'17 8.3
2015-Jul-04 07:30N 30°43' W 117°22'49 8.2
2015-Jul-04 01:30N 29°56' W 117°04'8 7.9
2015-Jul-04 00:32N 29°49' W 117°01'60 8.3
2015-Jul-03 17:23N 28°52' W 116°40'4311.0
2015-Jul-03 13:26N 28°11' W 116°25'7 8.4
2015-Jul-03 12:33N 28°04' W 116°22'9 8.3
2015-Jul-03 11:29N 27°56' W 116°19'16 8.1
2015-Jul-03 09:33N 27°42' W 116°12'11 8.5
2015-Jul-03 08:14N 27°33' W 116°04'15 8.3
2015-Jul-03 06:29N 27°22' W 115°53'18 8.6
2015-Jul-03 04:25N 27°08' W 115°40'34 8.4
2015-Jul-03 00:26N 26°43' W 115°16'  
Track history (hours):
 
Tides and Currents Weather Stations Pressure Air Temp Water Temp Dewpoint Dewpoint Depression Visibility Wind Speed Wind Dir Waves Ship Positions

Cap Felix

Last reported at 2015-Jul-05 20:32 UTC. Time now 2015-Jul-05 23:15 UTC.
Position N 33°54' W 118°27'.

Length 275 m; draft 16.6 m.

Type: Tanker. MMSI: 205517000.

Date/timePositionNaut miles runAvg speedWind from/ knotsBaromVisibWave heightAir tempDewpointWater temp
2015-Jul-05 20:32N 33°54' W 118°27'0 0.0
2015-Jul-05 18:23N 33°54' W 118°27'1 0.9
2015-Jul-05 17:33N 33°54' W 118°28'2 1.6
2015-Jul-05 16:33N 33°54' W 118°29'0 0.0
2015-Jul-05 15:33N 33°54' W 118°30'0 0.1
2015-Jul-05 14:33N 33°54' W 118°29'0 0.1
2015-Jul-05 13:30N 33°54' W 118°29'0 0.1
2015-Jul-05 12:33N 33°54' W 118°29'0 0.1
2015-Jul-05 11:30N 33°54' W 118°29'14 4.7
2015-Jul-05 08:29N 33°40' W 118°25'9 6.8
2015-Jul-05 07:11N 33°38' W 118°15'5 7.5
2015-Jul-05 06:32N 33°35' W 118°10'7 6.7
2015-Jul-05 05:33N 33°29' W 118°07'6 6.4
2015-Jul-05 04:33N 33°23' W 118°05'6 6.5
2015-Jul-05 03:33N 33°17' W 118°02'6 6.2
2015-Jul-05 02:33N 33°11' W 118°00'6 6.2
2015-Jul-05 01:33N 33°05' W 117°58'6 6.1
2015-Jul-05 00:33N 32°59' W 117°56'6 6.2
2015-Jul-04 23:33N 32°53' W 117°54'7 6.7
2015-Jul-04 22:33N 32°47' W 117°52'7 7.1
2015-Jul-04 21:33N 32°40' W 117°49'8 8.1
2015-Jul-04 20:33N 32°32' W 117°47'1110.5
2015-Jul-04 19:33N 32°22' W 117°47'9 9.0
2015-Jul-04 18:33N 32°13' W 117°46'6 6.1
2015-Jul-04 17:33N 32°07' W 117°46'9 8.8
2015-Jul-04 16:33N 31°58' W 117°45'9 8.8
2015-Jul-04 15:33N 31°49' W 117°44'9 9.0
2015-Jul-04 14:33N 31°40' W 117°43'9 8.6
2015-Jul-04 13:33N 31°32' W 117°41'9 8.5
2015-Jul-04 12:33N 31°24' W 117°38'9 8.7
2015-Jul-04 11:33N 31°15' W 117°34'9 8.5
2015-Jul-04 10:33N 31°07' W 117°31'8 8.4
2015-Jul-04 09:33N 30°59' W 117°28'17 8.3
2015-Jul-04 07:30N 30°43' W 117°22'49 8.2
2015-Jul-04 01:30N 29°56' W 117°04'8 7.9
2015-Jul-04 00:32N 29°49' W 117°01'60 8.3
2015-Jul-03 17:23N 28°52' W 116°40'4311.0
2015-Jul-03 13:26N 28°11' W 116°25'7 8.4
2015-Jul-03 12:33N 28°04' W 116°22'9 8.3
2015-Jul-03 11:29N 27°56' W 116°19'16 8.1
2015-Jul-03 09:33N 27°42' W 116°12'11 8.5
2015-Jul-03 08:14N 27°33' W 116°04'15 8.3
2015-Jul-03 06:29N 27°22' W 115°53'18 8.6
2015-Jul-03 04:25N 27°08' W 115°40'34 8.4
2015-Jul-03 00:26N 26°43' W 115°16'  

Dump ship's entire track history